createdAt,value
2018-07-11T00:01:21.459Z,95140.00
2018-07-11T00:03:55.458Z,95142.00
2018-07-11T00:06:27.400Z,95135.00
2018-07-11T00:08:59.092Z,95136.00
2018-07-11T00:11:30.883Z,95139.00
2018-07-11T00:14:02.647Z,95142.00
2018-07-11T00:16:33.843Z,95143.00
2018-07-11T00:19:05.776Z,95150.00
2018-07-11T00:21:37.624Z,95148.00
2018-07-11T00:24:09.530Z,95154.00
2018-07-11T00:26:41.469Z,95161.00
2018-07-11T00:29:13.237Z,95163.00
2018-07-11T00:31:44.963Z,95160.00
2018-07-11T00:34:16.812Z,95151.00
2018-07-11T00:36:48.582Z,95148.00
2018-07-11T00:39:20.566Z,95143.00
2018-07-11T00:41:52.461Z,95142.00
2018-07-11T00:44:24.338Z,95132.00
2018-07-11T00:46:56.420Z,95138.00
2018-07-11T00:49:28.218Z,95130.00
2018-07-11T00:52:00.038Z,95132.00
2018-07-11T00:54:31.947Z,95135.00
2018-07-11T00:57:04.403Z,95132.00
2018-07-11T00:59:38.486Z,95129.00
2018-07-11T01:02:10.307Z,95129.00
2018-07-11T01:04:42.163Z,95129.00
2018-07-11T01:07:14.303Z,95130.00
2018-07-11T01:09:49.727Z,95136.00
2018-07-11T01:12:21.653Z,95127.00
2018-07-11T01:14:53.503Z,95129.00
2018-07-11T01:17:30.988Z,95128.00
2018-07-11T01:20:02.831Z,95130.00
2018-07-11T01:22:34.575Z,95132.00
2018-07-11T01:25:06.258Z,95143.00
2018-07-11T01:27:37.961Z,95151.00
2018-07-11T01:30:09.698Z,95148.00
2018-07-11T01:32:41.450Z,95135.00
2018-07-11T01:35:13.238Z,95124.00
2018-07-11T01:37:45.072Z,95121.00
2018-07-11T01:40:16.897Z,95125.00
2018-07-11T01:42:48.699Z,95139.00
2018-07-11T01:45:20.473Z,95136.00
2018-07-11T01:47:52.335Z,95137.00
2018-07-11T01:50:24.191Z,95143.00
2018-07-11T01:52:59.647Z,95143.00
2018-07-11T01:55:31.267Z,95133.00
2018-07-11T01:58:03.075Z,95136.00
2018-07-11T02:00:35.431Z,95135.00
2018-07-11T02:03:07.093Z,95129.00
2018-07-11T02:05:38.690Z,95120.00
2018-07-11T02:08:10.827Z,95117.00
2018-07-11T02:10:42.770Z,95120.00
2018-07-11T02:13:15.107Z,95130.00
2018-07-11T02:15:49.677Z,95132.00
2018-07-11T02:18:27.127Z,95137.00
2018-07-11T02:20:59.700Z,95135.00
2018-07-11T02:23:39.054Z,95134.00
2018-07-11T02:26:10.947Z,95138.00
2018-07-11T02:28:43.237Z,95141.00
2018-07-11T02:31:15.023Z,95139.00
2018-07-11T02:33:46.875Z,95143.00
2018-07-11T02:36:18.630Z,95140.00
2018-07-11T02:38:50.301Z,95134.00
2018-07-11T02:41:22.520Z,95124.00
2018-07-11T02:43:54.259Z,95111.00
2018-07-11T02:46:31.289Z,95101.00
2018-07-11T02:49:03.015Z,95098.00
2018-07-11T02:51:34.843Z,95108.00
2018-07-11T02:54:06.611Z,95107.00
2018-07-11T02:56:38.499Z,95117.00
2018-07-11T02:59:10.565Z,95111.00
2018-07-11T03:01:42.242Z,95109.00
2018-07-11T03:04:14.264Z,95107.00
2018-07-11T03:06:46.056Z,95106.00
2018-07-11T03:09:18.031Z,95110.00
2018-07-11T03:11:49.750Z,95107.00
2018-07-11T03:14:21.462Z,95106.00
2018-07-11T03:16:53.284Z,95106.00
2018-07-11T03:19:24.969Z,95099.00
2018-07-11T03:21:56.754Z,95106.00
2018-07-11T03:24:28.736Z,95097.00
2018-07-11T03:27:00.231Z,95101.00
2018-07-11T03:29:31.682Z,95098.00
2018-07-11T03:32:03.439Z,95104.00
2018-07-11T03:34:35.442Z,95107.00
2018-07-11T03:37:07.350Z,95109.00
2018-07-11T03:39:41.223Z,95115.00
2018-07-11T03:42:12.930Z,95120.00
2018-07-11T03:44:44.958Z,95122.00
2018-07-11T03:47:16.623Z,95127.00
2018-07-11T03:49:48.335Z,95131.00
2018-07-11T03:52:20.111Z,95139.00
2018-07-11T03:54:51.750Z,95143.00
2018-07-11T03:57:23.363Z,95142.00
2018-07-11T03:59:55.004Z,95145.00
2018-07-11T04:02:26.931Z,95136.00
2018-07-11T04:04:58.691Z,95134.00
2018-07-11T04:07:30.320Z,95130.00
2018-07-11T04:10:01.484Z,95129.00
2018-07-11T04:12:32.926Z,95124.00
2018-07-11T04:15:04.559Z,95125.00
2018-07-11T04:17:36.305Z,95130.00
2018-07-11T04:20:08.055Z,95131.00
2018-07-11T04:22:39.806Z,95136.00
2018-07-11T04:25:11.553Z,95142.00
2018-07-11T04:27:43.321Z,95139.00
2018-07-11T04:30:15.591Z,95136.00
2018-07-11T04:32:47.415Z,95136.00
2018-07-11T04:35:19.186Z,95140.00
2018-07-11T04:37:51.014Z,95149.00
2018-07-11T04:40:22.779Z,95149.00
2018-07-11T04:42:54.573Z,95148.00
2018-07-11T04:45:26.324Z,95145.00
2018-07-11T04:47:58.171Z,95146.00
2018-07-11T04:50:29.933Z,95143.00
2018-07-11T04:53:06.450Z,95146.00
2018-07-11T04:55:38.633Z,95149.00
2018-07-11T04:58:10.421Z,95156.00
2018-07-11T05:00:42.488Z,95155.00
2018-07-11T05:03:14.141Z,95150.00
2018-07-11T05:05:46.035Z,95150.00
2018-07-11T05:08:18.446Z,95154.00
2018-07-11T05:10:50.296Z,95160.00
2018-07-11T05:13:22.480Z,95159.00
2018-07-11T05:15:54.446Z,95160.00
2018-07-11T05:18:26.119Z,95156.00
2018-07-11T05:20:57.804Z,95161.00
2018-07-11T05:23:29.511Z,95161.00
2018-07-11T05:26:01.186Z,95161.00
2018-07-11T05:28:33.362Z,95166.00
2018-07-11T05:31:04.999Z,95164.00
2018-07-11T05:33:36.692Z,95164.00
2018-07-11T05:36:08.399Z,95160.00
2018-07-11T05:38:40.096Z,95159.00
2018-07-11T05:41:11.748Z,95162.00
2018-07-11T05:43:43.482Z,95162.00
2018-07-11T05:46:15.101Z,95159.00
2018-07-11T05:48:46.355Z,95161.00
2018-07-11T05:51:17.807Z,95160.00
2018-07-11T05:53:49.492Z,95160.00
2018-07-11T05:56:21.221Z,95161.00
2018-07-11T05:58:53.259Z,95160.00
2018-07-11T06:01:24.844Z,95143.00
2018-07-11T06:03:56.506Z,95137.00
2018-07-11T06:06:28.222Z,95149.00
2018-07-11T06:08:59.883Z,95160.00
2018-07-11T06:11:31.750Z,95161.00
2018-07-11T06:14:03.574Z,95170.00
2018-07-11T06:16:35.130Z,95169.00
2018-07-11T06:19:06.859Z,95168.00
2018-07-11T06:21:38.642Z,95165.00
2018-07-11T06:24:10.371Z,95163.00
2018-07-11T06:26:42.420Z,95163.00
2018-07-11T06:29:14.098Z,95161.00
2018-07-11T06:31:45.784Z,95162.00
2018-07-11T06:34:17.747Z,95163.00
2018-07-11T06:36:49.469Z,95163.00
2018-07-11T06:39:21.375Z,95163.00
2018-07-11T06:41:53.095Z,95164.00
2018-07-11T06:44:24.936Z,95161.00
2018-07-11T06:46:56.979Z,95164.00
2018-07-11T06:49:28.904Z,95166.00
2018-07-11T06:52:00.824Z,95162.00
2018-07-11T06:54:32.705Z,95164.00
2018-07-11T06:57:04.455Z,95173.00
2018-07-11T06:59:36.424Z,95175.00
2018-07-11T07:02:08.398Z,95177.00
2018-07-11T07:04:40.317Z,95185.00
2018-07-11T07:07:15.969Z,95179.00
2018-07-11T07:09:47.872Z,95179.00
2018-07-11T07:12:19.841Z,95178.00
2018-07-11T07:14:51.693Z,95181.00
2018-07-11T07:17:23.465Z,95183.00
2018-07-11T07:19:55.389Z,95186.00
2018-07-11T07:22:27.200Z,95184.00
2018-07-11T07:24:59.198Z,95173.00
2018-07-11T07:27:31.386Z,95177.00
2018-07-11T07:30:03.681Z,95181.00
2018-07-11T07:32:35.638Z,95177.00
2018-07-11T07:35:07.150Z,95176.00
2018-07-11T07:37:39.031Z,95177.00
2018-07-11T07:40:10.873Z,95179.00
2018-07-11T07:42:42.627Z,95174.00
2018-07-11T07:45:14.501Z,95181.00
2018-07-11T07:47:47.257Z,95178.00
2018-07-11T07:50:19.270Z,95182.00
2018-07-11T07:52:51.412Z,95181.00
2018-07-11T07:55:23.332Z,95179.00
2018-07-11T07:57:55.392Z,95186.00
2018-07-11T08:00:28.448Z,95185.00
2018-07-11T08:03:00.911Z,95177.00
2018-07-11T08:05:32.889Z,95178.00
2018-07-11T08:08:04.678Z,95179.00
2018-07-11T08:10:36.568Z,95178.00
2018-07-11T08:13:08.392Z,95178.00
2018-07-11T08:15:40.276Z,95178.00
2018-07-11T08:18:12.151Z,95178.00
2018-07-11T08:20:44.267Z,95172.00
2018-07-11T08:23:39.930Z,95181.00
2018-07-11T08:26:28.174Z,95180.00
2018-07-11T08:31:46.017Z,95183.00
2018-07-11T08:34:40.364Z,95186.00
2018-07-11T08:38:01.512Z,95187.00
2018-07-11T08:41:00.403Z,95188.00
2018-07-11T08:44:55.121Z,95188.00
2018-07-11T08:47:43.269Z,95190.00
2018-07-11T08:50:33.672Z,95195.00
2018-07-11T08:53:23.254Z,95194.00
2018-07-11T08:56:18.435Z,95196.00
2018-07-11T08:59:09.947Z,95197.00
2018-07-11T09:01:59.921Z,95201.00
2018-07-11T09:06:59.107Z,95202.00
2018-07-11T09:10:53.252Z,95205.00
2018-07-11T09:16:12.781Z,95196.00
2018-07-11T09:21:08.412Z,95197.00
2018-07-11T09:24:50.815Z,95205.00
2018-07-11T09:27:22.584Z,95203.00
2018-07-11T09:29:54.617Z,95203.00
2018-07-11T09:32:26.383Z,95203.00
2018-07-11T09:34:58.259Z,95202.00
2018-07-11T09:37:30.137Z,95204.00
2018-07-11T09:40:02.132Z,95204.00
2018-07-11T09:42:39.469Z,95209.00
2018-07-11T09:45:11.410Z,95202.00
2018-07-11T09:47:43.216Z,95205.00
2018-07-11T09:50:15.737Z,95200.00
2018-07-11T09:52:47.616Z,95199.00
2018-07-11T09:55:19.900Z,95193.00
2018-07-11T09:57:53.763Z,95203.00
2018-07-11T10:01:36.345Z,95207.00
2018-07-11T10:04:08.323Z,95200.00
2018-07-11T10:06:40.650Z,95195.00
2018-07-11T10:09:12.541Z,95196.00
2018-07-11T10:11:46.093Z,95189.00
2018-07-11T10:14:18.021Z,95185.00
2018-07-11T10:16:49.762Z,95193.00
2018-07-11T10:19:21.409Z,95184.00
2018-07-11T10:21:53.644Z,95185.00
2018-07-11T10:24:25.475Z,95191.00
2018-07-11T10:26:57.336Z,95191.00
2018-07-11T10:29:29.625Z,95188.00
2018-07-11T10:32:01.429Z,95183.00
2018-07-11T10:34:33.842Z,95180.00
2018-07-11T10:37:06.234Z,95183.00
2018-07-11T10:39:38.190Z,95176.00
2018-07-11T10:42:09.677Z,95179.00
2018-07-11T10:44:42.307Z,95181.00
2018-07-11T10:47:14.762Z,95178.00
2018-07-11T10:49:46.603Z,95173.00
2018-07-11T10:52:18.683Z,95174.00
2018-07-11T10:54:50.610Z,95180.00
2018-07-11T10:57:26.923Z,95172.00
2018-07-11T10:59:58.989Z,95172.00
2018-07-11T11:02:30.683Z,95173.00
2018-07-11T11:05:02.440Z,95167.00
2018-07-11T11:07:38.514Z,95168.00
2018-07-11T11:10:11.029Z,95166.00
2018-07-11T11:12:44.221Z,95155.00
2018-07-11T11:15:19.726Z,95164.00
2018-07-11T11:17:51.933Z,95170.00
2018-07-11T11:20:24.136Z,95175.00
2018-07-11T11:22:56.489Z,95176.00
2018-07-11T11:25:31.106Z,95171.00
2018-07-11T11:28:03.319Z,95161.00
2018-07-11T11:30:35.277Z,95152.00
2018-07-11T11:33:07.177Z,95150.00
2018-07-11T11:35:39.028Z,95148.00
2018-07-11T11:38:11.136Z,95144.00
2018-07-11T11:40:42.976Z,95140.00
2018-07-11T11:43:14.774Z,95139.00
2018-07-11T11:45:46.496Z,95138.00
2018-07-11T11:48:18.269Z,95149.00
2018-07-11T11:50:49.984Z,95152.00
2018-07-11T11:53:22.283Z,95158.00
2018-07-11T11:56:01.383Z,95163.00
2018-07-11T11:58:34.124Z,95152.00
2018-07-11T12:01:05.983Z,95153.00
2018-07-11T12:03:37.858Z,95143.00
2018-07-11T12:06:09.597Z,95142.00
2018-07-11T12:08:42.347Z,95136.00
2018-07-11T12:11:14.163Z,95143.00
2018-07-11T12:13:45.985Z,95140.00
2018-07-11T12:16:17.767Z,95144.00
2018-07-11T12:18:49.700Z,95140.00
2018-07-11T12:21:21.589Z,95143.00
2018-07-11T12:23:54.052Z,95145.00
2018-07-11T12:26:27.758Z,95147.00
2018-07-11T12:28:59.994Z,95134.00
2018-07-11T12:31:31.899Z,95142.00
2018-07-11T12:34:03.647Z,95143.00
2018-07-11T12:36:36.569Z,95139.00
2018-07-11T12:39:08.648Z,95139.00
2018-07-11T12:41:40.474Z,95139.00
2018-07-11T12:44:12.296Z,95143.00
2018-07-11T12:46:44.646Z,95141.00
2018-07-11T12:49:16.625Z,95149.00
2018-07-11T12:51:50.396Z,95146.00
2018-07-11T12:54:25.337Z,95144.00
2018-07-11T12:56:57.624Z,95148.00
2018-07-11T12:59:29.564Z,95145.00
2018-07-11T13:02:02.651Z,95150.00
2018-07-11T13:04:37.854Z,95153.00
2018-07-11T13:07:10.129Z,95155.00
2018-07-11T13:09:42.336Z,95154.00
2018-07-11T13:12:14.016Z,95159.00
2018-07-11T13:14:47.524Z,95161.00
2018-07-11T13:17:23.408Z,95160.00
2018-07-11T13:19:59.391Z,95158.00
2018-07-11T13:22:34.737Z,95158.00
2018-07-11T13:25:08.414Z,95155.00
2018-07-11T13:27:40.605Z,95153.00
2018-07-11T13:30:12.399Z,95159.00
2018-07-11T13:32:44.362Z,95163.00
2018-07-11T13:35:16.229Z,95156.00
2018-07-11T13:37:49.348Z,95154.00
2018-07-11T13:40:23.316Z,95154.00
2018-07-11T13:42:55.013Z,95151.00
2018-07-11T13:45:26.824Z,95150.00
2018-07-11T13:48:03.685Z,95153.00
2018-07-11T13:50:37.737Z,95157.00
2018-07-11T13:53:09.558Z,95157.00
2018-07-11T13:55:41.428Z,95156.00
2018-07-11T13:58:13.404Z,95151.00
2018-07-11T14:00:45.284Z,95155.00
2018-07-11T14:03:17.187Z,95157.00
2018-07-11T14:05:50.323Z,95156.00
2018-07-11T14:08:22.171Z,95153.00
2018-07-11T14:10:54.256Z,95155.00
2018-07-11T14:13:26.475Z,95153.00
2018-07-11T14:15:58.393Z,95154.00
2018-07-11T14:18:30.259Z,95152.00
2018-07-11T14:21:02.474Z,95151.00
2018-07-11T14:23:42.659Z,95148.00
2018-07-11T14:26:17.522Z,95156.00
2018-07-11T14:28:53.782Z,95151.00
2018-07-11T14:31:33.739Z,95155.00
2018-07-11T14:34:07.974Z,95158.00
2018-07-11T14:36:39.972Z,95160.00
2018-07-11T14:39:12.285Z,95157.00
2018-07-11T14:41:44.164Z,95155.00
2018-07-11T14:44:16.425Z,95159.00
2018-07-11T14:46:48.628Z,95154.00
2018-07-11T14:49:22.286Z,95164.00
2018-07-11T14:51:54.300Z,95162.00
2018-07-11T14:54:26.129Z,95159.00
2018-07-11T14:56:58.053Z,95158.00
2018-07-11T14:59:29.828Z,95153.00
2018-07-11T15:02:01.676Z,95150.00
2018-07-11T15:04:33.664Z,95151.00
2018-07-11T15:07:05.930Z,95151.00
2018-07-11T15:09:38.649Z,95157.00
2018-07-11T15:12:12.136Z,95157.00
2018-07-11T15:14:45.052Z,95161.00
2018-07-11T15:17:17.893Z,95162.00
2018-07-11T15:19:52.180Z,95163.00
2018-07-11T15:22:28.195Z,95155.00
2018-07-11T15:25:01.080Z,95158.00
2018-07-11T15:27:33.243Z,95157.00
2018-07-11T15:30:07.844Z,95163.00
2018-07-11T15:32:40.212Z,95164.00
2018-07-11T15:35:12.951Z,95166.00
2018-07-11T15:37:44.883Z,95162.00
2018-07-11T15:40:16.873Z,95159.00
2018-07-11T15:42:49.904Z,95162.00
2018-07-11T15:45:21.828Z,95169.00
2018-07-11T15:47:54.185Z,95172.00
2018-07-11T15:50:26.946Z,95168.00
2018-07-11T15:53:00.365Z,95174.00
2018-07-11T15:55:35.113Z,95174.00
2018-07-11T15:58:14.253Z,95174.00
2018-07-11T16:00:46.174Z,95181.00
2018-07-11T16:03:19.205Z,95185.00
2018-07-11T16:05:51.209Z,95187.00
2018-07-11T16:08:23.359Z,95180.00
2018-07-11T16:11:02.862Z,95189.00
2018-07-11T16:13:35.116Z,95182.00
2018-07-11T16:16:07.040Z,95192.00
2018-07-11T16:18:39.094Z,95182.00
2018-07-11T16:21:10.963Z,95185.00
2018-07-11T16:23:42.920Z,95184.00
2018-07-11T16:26:14.956Z,95183.00
2018-07-11T16:28:47.076Z,95182.00
2018-07-11T16:31:18.973Z,95184.00
2018-07-11T16:33:50.971Z,95186.00
2018-07-11T16:36:22.980Z,95190.00
2018-07-11T16:38:54.853Z,95193.00
2018-07-11T16:41:26.980Z,95194.00
2018-07-11T16:43:59.464Z,95202.00
2018-07-11T16:46:31.402Z,95209.00
2018-07-11T16:49:03.718Z,95212.00
2018-07-11T16:51:35.577Z,95220.00
2018-07-11T16:54:07.550Z,95213.00
2018-07-11T16:56:40.476Z,95231.00
2018-07-11T16:59:14.425Z,95223.00
2018-07-11T17:01:59.552Z,95218.00
2018-07-11T17:04:34.470Z,95217.00
2018-07-11T17:07:11.289Z,95228.00
2018-07-11T17:09:43.927Z,95231.00
2018-07-11T17:12:16.265Z,95226.00
2018-07-11T17:14:49.156Z,95229.00
2018-07-11T17:17:25.102Z,95221.00
2018-07-11T17:20:04.813Z,95223.00
2018-07-11T17:22:58.513Z,95229.00
2018-07-11T17:25:37.733Z,95230.00
2018-07-11T17:28:09.694Z,95230.00
2018-07-11T17:30:43.188Z,95230.00
2018-07-11T17:33:15.710Z,95236.00
2018-07-11T17:35:54.225Z,95237.00
2018-07-11T17:38:30.664Z,95242.00
2018-07-11T17:41:03.663Z,95246.00
2018-07-11T17:43:38.197Z,95251.00
2018-07-11T17:46:10.179Z,95254.00
2018-07-11T17:49:23.502Z,95252.00
2018-07-11T17:52:05.083Z,95254.00
2018-07-11T17:55:18.193Z,95252.00
2018-07-11T17:57:56.081Z,95258.00
2018-07-11T18:01:06.047Z,95259.00
2018-07-11T18:03:49.542Z,95260.00
2018-07-11T18:06:42.089Z,95260.00
2018-07-11T18:09:15.183Z,95265.00
2018-07-11T18:12:00.026Z,95264.00
2018-07-11T18:14:58.826Z,95269.00
2018-07-11T18:17:57.325Z,95271.00
2018-07-11T18:21:18.470Z,95271.00
2018-07-11T18:26:16.934Z,95272.00
2018-07-11T18:29:12.315Z,95275.00
2018-07-11T18:32:03.621Z,95281.00
2018-07-11T18:37:02.257Z,95280.00
2018-07-11T18:40:56.538Z,95286.00
2018-07-11T18:43:42.684Z,95287.00
2018-07-11T18:47:30.401Z,95288.00
2018-07-11T18:50:21.456Z,95291.00
2018-07-11T18:53:08.823Z,95298.00
2018-07-11T18:55:58.366Z,95286.00
2018-07-11T19:01:23.665Z,95305.00
2018-07-11T19:04:14.724Z,95308.00
2018-07-11T19:07:00.290Z,95310.00
2018-07-11T19:10:08.002Z,95313.00
2018-07-11T19:13:14.603Z,95317.00
2018-07-11T19:15:47.753Z,95320.00
2018-07-11T19:18:24.553Z,95318.00
2018-07-11T19:21:21.065Z,95325.00
2018-07-11T19:24:17.890Z,95326.00
2018-07-11T19:27:02.881Z,95333.00
2018-07-11T19:31:55.512Z,95329.00
2018-07-11T19:36:50.453Z,95328.00
2018-07-11T19:39:36.936Z,95331.00
2018-07-11T19:42:23.976Z,95336.00
2018-07-11T19:48:26.495Z,95335.00
2018-07-11T19:51:15.124Z,95342.00
2018-07-11T19:54:08.368Z,95345.00
2018-07-11T19:56:59.437Z,95345.00
2018-07-11T19:59:31.372Z,95342.00
2018-07-11T20:02:03.385Z,95345.00
2018-07-11T20:04:35.272Z,95342.00
2018-07-11T20:07:07.262Z,95348.00
2018-07-11T20:09:39.594Z,95350.00
2018-07-11T20:12:11.489Z,95351.00
2018-07-11T20:14:43.446Z,95355.00
2018-07-11T20:17:15.314Z,95359.00
2018-07-11T20:19:47.232Z,95358.00
2018-07-11T20:22:19.219Z,95357.00
2018-07-11T20:24:51.072Z,95353.00
2018-07-11T20:27:22.909Z,95354.00
2018-07-11T20:29:54.861Z,95355.00
2018-07-11T20:32:27.260Z,95357.00
2018-07-11T20:34:59.452Z,95362.00
2018-07-11T20:37:31.986Z,95356.00
2018-07-11T20:40:03.865Z,95358.00
2018-07-11T20:42:36.951Z,95356.00
2018-07-11T20:45:08.331Z,95363.00
2018-07-11T20:47:40.452Z,95359.00
2018-07-11T20:50:12.830Z,95359.00
2018-07-11T20:52:44.642Z,95364.00
2018-07-11T20:55:16.484Z,95363.00
2018-07-11T20:57:48.313Z,95363.00
2018-07-11T21:00:37.202Z,95370.00
2018-07-11T21:03:30.390Z,95372.00
2018-07-11T21:10:31.062Z,95375.00
2018-07-11T21:13:37.435Z,95377.00
2018-07-11T21:18:29.489Z,95379.00
2018-07-11T21:21:01.405Z,95378.00
2018-07-11T21:23:33.331Z,95380.00
2018-07-11T21:26:05.210Z,95383.00
2018-07-11T21:28:37.832Z,95376.00
2018-07-11T21:31:09.733Z,95379.00
2018-07-11T21:33:41.531Z,95382.00
2018-07-11T21:36:13.505Z,95385.00
2018-07-11T21:38:45.505Z,95390.00
2018-07-11T21:41:17.392Z,95389.00
2018-07-11T21:43:49.310Z,95391.00
2018-07-11T21:46:21.478Z,95386.00
2018-07-11T21:48:54.023Z,95384.00
2018-07-11T21:51:25.891Z,95389.00
2018-07-11T21:53:57.801Z,95389.00
2018-07-11T21:56:29.663Z,95391.00
2018-07-11T21:59:01.850Z,95395.00
2018-07-11T22:01:33.734Z,95374.00
2018-07-11T22:04:05.777Z,95387.00
2018-07-11T22:06:37.941Z,95390.00
2018-07-11T22:09:09.950Z,95385.00
2018-07-11T22:11:41.697Z,95390.00
2018-07-11T22:14:13.530Z,95391.00
2018-07-11T22:16:45.190Z,95385.00
2018-07-11T22:19:17.090Z,95393.00
2018-07-11T22:21:46.699Z,95392.00
2018-07-11T22:24:16.041Z,95397.00
2018-07-11T22:26:45.436Z,95397.00
2018-07-11T22:29:14.892Z,95399.00
2018-07-11T22:31:44.270Z,95402.00
2018-07-11T22:34:13.644Z,95403.00
2018-07-11T22:36:43.388Z,95399.00
2018-07-11T22:39:12.763Z,95397.00
2018-07-11T22:41:42.293Z,95401.00
2018-07-11T22:44:11.668Z,95401.00
2018-07-11T22:46:41.010Z,95403.00
2018-07-11T22:49:10.820Z,95402.00
2018-07-11T22:51:41.089Z,95397.00
2018-07-11T22:54:10.206Z,95400.00
2018-07-11T22:56:39.915Z,95401.00
2018-07-11T22:59:09.277Z,95397.00
2018-07-11T23:01:38.660Z,95398.00
2018-07-11T23:04:08.094Z,95394.00
2018-07-11T23:06:37.625Z,95401.00
2018-07-11T23:09:07.182Z,95394.00
2018-07-11T23:11:36.522Z,95395.00
2018-07-11T23:14:05.845Z,95389.00
2018-07-11T23:16:35.146Z,95390.00
2018-07-11T23:19:04.487Z,95398.00
2018-07-11T23:21:33.734Z,95400.00
2018-07-11T23:24:03.909Z,95395.00
2018-07-11T23:26:33.266Z,95398.00
2018-07-11T23:29:02.588Z,95394.00
2018-07-11T23:31:31.897Z,95391.00
2018-07-11T23:34:01.232Z,95390.00
2018-07-11T23:36:30.866Z,95391.00
2018-07-11T23:39:00.713Z,95392.00
2018-07-11T23:41:30.359Z,95393.00
2018-07-11T23:43:59.770Z,95386.00
2018-07-11T23:46:29.306Z,95395.00
2018-07-11T23:48:58.777Z,95398.00
2018-07-11T23:51:28.637Z,95398.00
2018-07-11T23:53:57.757Z,95397.00
2018-07-11T23:56:27.116Z,95394.00
2018-07-11T23:58:56.914Z,95398.00
